createdAt,value
2022-12-18T00:00:42.806Z,100466.75
2022-12-18T00:10:44.420Z,100450.44
2022-12-18T00:20:45.833Z,100472.81
2022-12-18T00:30:47.222Z,100478.44
2022-12-18T00:40:48.703Z,100465.78
2022-12-18T00:50:50.360Z,100472.81
2022-12-18T01:00:52.079Z,100452.56
2022-12-18T01:10:54.518Z,100466.75
2022-12-18T01:20:55.879Z,100461.41
2022-12-18T01:30:57.333Z,100466.75
2022-12-18T01:41:01.966Z,100463.25
2022-12-18T01:51:03.582Z,100463.25
2022-12-18T02:01:05.426Z,100452.25
2022-12-18T02:11:25.453Z,100461.97
2022-12-18T02:21:57.034Z,100456.34
2022-12-18T02:32:01.532Z,100447.88
2022-12-18T02:42:08.825Z,100429.16
2022-12-18T02:52:30.028Z,100427.31
2022-12-18T03:02:49.971Z,100422.81
2022-12-18T03:13:02.834Z,100425.50
2022-12-18T03:23:10.992Z,100415.50
2022-12-18T03:33:36.618Z,100400.28
2022-12-18T03:43:55.795Z,100391.75
2022-12-18T03:53:59.431Z,100396.09
2022-12-18T04:04:01.970Z,100385.53
2022-12-18T04:14:07.057Z,100380.50
2022-12-18T04:24:09.301Z,100383.03
2022-12-18T04:34:10.671Z,100384.72
2022-12-18T04:44:12.060Z,100384.56
2022-12-18T04:54:14.695Z,100377.69
2022-12-18T05:04:16.644Z,100364.47
2022-12-18T05:14:19.128Z,100370.66
2022-12-18T05:24:20.517Z,100364.84
2022-12-18T05:34:22.536Z,100367.06
2022-12-18T05:44:24.001Z,100369.75
2022-12-18T05:54:27.442Z,100375.63
2022-12-18T06:04:32.194Z,100402.22
2022-12-18T06:14:33.694Z,100409.81
2022-12-18T06:24:35.177Z,100421.72
2022-12-18T06:34:38.318Z,100437.16
2022-12-18T06:44:39.774Z,100421.81
2022-12-18T06:54:41.225Z,100394.09
2022-12-18T07:04:42.670Z,100403.47
2022-12-18T07:14:44.178Z,100402.47
2022-12-18T07:24:45.801Z,100394.28
2022-12-18T07:34:47.280Z,100407.53
2022-12-18T07:44:48.877Z,100380.50
2022-12-18T07:54:50.871Z,100373.31
2022-12-18T08:04:52.283Z,100377.38
2022-12-18T08:14:54.093Z,100375.59
2022-12-18T08:24:55.538Z,100367.00
2022-12-18T08:34:56.928Z,100321.81
2022-12-18T08:44:58.301Z,100303.50
2022-12-18T08:54:59.693Z,100322.78
2022-12-18T09:05:01.108Z,100332.25
2022-12-18T09:15:02.581Z,100318.38
2022-12-18T09:25:08.869Z,100308.66
2022-12-18T09:35:10.574Z,100297.94
2022-12-18T09:45:13.836Z,100291.78
2022-12-18T09:55:37.334Z,100301.81
2022-12-18T10:05:49.212Z,100301.97
2022-12-18T10:16:02.787Z,100281.38
2022-12-18T10:26:10.761Z,100261.75
2022-12-18T10:36:12.408Z,100261.91
2022-12-18T10:46:16.778Z,100249.38
2022-12-18T10:56:20.654Z,100227.09
2022-12-18T11:06:25.155Z,100231.25
2022-12-18T11:16:27.036Z,100239.28
2022-12-18T11:26:35.233Z,100226.91
2022-12-18T11:36:42.036Z,100224.38
2022-12-18T11:46:49.332Z,100204.13
2022-12-18T11:56:52.393Z,100186.38
2022-12-18T12:07:03.078Z,100185.22
2022-12-18T12:17:11.747Z,100178.53
2022-12-18T12:27:34.912Z,100178.31
2022-12-18T12:38:08.825Z,100155.53
2022-12-18T12:48:43.449Z,100155.22
2022-12-18T12:59:15.047Z,100161.06
2022-12-18T13:09:16.421Z,100157.88
2022-12-18T13:19:23.165Z,100153.09
2022-12-18T13:29:44.405Z,100158.72
2022-12-18T13:39:45.918Z,100139.56
2022-12-18T13:49:47.649Z,100134.97
2022-12-18T13:59:49.211Z,100125.00
2022-12-18T14:09:55.618Z,100119.19
2022-12-18T14:20:03.721Z,100105.38
2022-12-18T14:30:29.222Z,100094.53
2022-12-18T14:40:30.740Z,100091.41
2022-12-18T14:50:32.116Z,100081.13
2022-12-18T15:00:33.615Z,100063.69
2022-12-18T15:10:35.270Z,100058.25
2022-12-18T15:20:50.700Z,100044.09
2022-12-18T15:30:59.688Z,100035.44
2022-12-18T15:41:01.025Z,100038.88
2022-12-18T15:51:02.405Z,100057.63
2022-12-18T16:01:03.915Z,100040.16
2022-12-18T16:11:05.516Z,100027.88
2022-12-18T16:21:06.890Z,100030.72
2022-12-18T16:31:08.494Z,100034.25
2022-12-18T16:41:34.303Z,100025.38
2022-12-18T16:51:35.961Z,100024.38
2022-12-18T17:01:37.577Z,100013.41
2022-12-18T17:11:38.992Z,100018.59
2022-12-18T17:21:40.445Z,100019.47
2022-12-18T17:31:42.702Z,100028.56
2022-12-18T17:41:44.317Z,100025.06
2022-12-18T17:51:45.718Z,99998.91
2022-12-18T18:01:47.331Z,100017.59
2022-12-18T18:12:07.588Z,100031.09
2022-12-18T18:22:09.206Z,100024.25
2022-12-18T18:32:10.644Z,100005.94
2022-12-18T18:42:12.101Z,100032.34
2022-12-18T18:52:13.495Z,100045.84
2022-12-18T19:02:15.615Z,100048.91
2022-12-18T19:12:39.288Z,100026.88
2022-12-18T19:22:42.017Z,100013.69
2022-12-18T19:32:44.652Z,100013.53
2022-12-18T19:42:46.260Z,100019.56
2022-12-18T19:52:49.283Z,100006.88
2022-12-18T20:02:51.012Z,100003.50
2022-12-18T20:12:52.498Z,100028.25
2022-12-18T20:22:56.024Z,100015.88
2022-12-18T20:32:57.490Z,100012.56
2022-12-18T20:42:58.883Z,100005.22
2022-12-18T20:53:00.292Z,100015.94
2022-12-18T21:03:01.842Z,100031.91
2022-12-18T21:13:06.105Z,100032.19
2022-12-18T21:23:16.662Z,100026.00
2022-12-18T21:33:18.435Z,100018.25
2022-12-18T21:43:38.293Z,100008.81
2022-12-18T21:53:39.688Z,100004.72
2022-12-18T22:03:41.318Z,99992.59
2022-12-18T22:13:42.739Z,99972.88
2022-12-18T22:23:44.127Z,99956.53
2022-12-18T22:33:45.620Z,99945.59
2022-12-18T22:43:48.961Z,99941.19
2022-12-18T22:53:50.479Z,99924.50
2022-12-18T23:03:52.262Z,99919.09
2022-12-18T23:13:54.152Z,99913.97
2022-12-18T23:23:58.977Z,99886.78
2022-12-18T23:34:00.730Z,99872.94
2022-12-18T23:44:05.085Z,99863.91
2022-12-18T23:54:06.593Z,99861.44
